Historyczne dane pomiarowe

Dodano dane terminowe – wersja testowa.

Dane z okresu 1951-2019

Wersja bazy: 1.34 [2019-03-16, lista zmian], aktualizacja planowana na 2019-04-15

Dane meteo z obszaru Polski uzyskane na podstawie danych udostępnionych przez Instytut Meteorologii i Gospodarki Wodnej – Państwowy Instytut Badawczy.

 

Wybierz Datę:    

       

TemperaturaWilgotnośćZachmurzenieWiatrCiśnienieWidzialnośćZjawiska
 Data    tng td wb rh cc ccl cl cm ch dir g1 g2 mslp ppp      
1999-08-01 00:00:00 15.3--- 7.7 11.260wxwx2wx--1020.4 998.2 0.0---wx
1999-08-01 01:00:00 14.6--- 7.9 11.064wxwx1wx--1020.6 998.4----wx
1999-08-01 02:00:00 14.1--- 7.9 10.866wxwx1wx--1020.8 998.5----wx
1999-08-01 03:00:00 13.6--- 6.9 10.164wxwx3wx--1021.1 998.8----wx
1999-08-01 04:00:00 13.6--- 6.9 10.164wxwx3wx--1021.4 999.1----wx
1999-08-01 05:00:00 15.9--- 9.4 12.365wxwx3wx--1021.5 999.3----wx
1999-08-01 06:00:00 18.4--- 8.3 12.852wxwx3wx--1021.7 999.7 0.0---wx
1999-08-01 07:00:00 19.8--- 7.9 13.246wxwx3wx--1021.7 999.8----wx
1999-08-01 08:00:00 20.8--- 7.8 13.643wxwx3wx--1021.6 999.8----wx
1999-08-01 09:00:00 21.8--- 7.8 14.041wxwxwx3wx--1021.2 999.5----wx
1999-08-01 10:00:00 23.4--- 8.7 15.039wxwxwx3wx--1020.8 999.2----wx
1999-08-01 11:00:00 23.6--- 8.0 14.837wxwxwx3wx--1020.4 998.8----wx
1999-08-01 12:00:00 23.6--- 8.0 14.837wxwxwxwx3wx--1020.2 998.6 0.0---wx
1999-08-01 13:00:00 24.6--- 8.1 15.235wxwxwxwx4wx--1019.8 998.3----wx
1999-08-01 14:00:00 24.2--- 8.0 15.035wxwxwxwx2wx--1019.4 997.9----wx
1999-08-01 15:00:00 24.0--- 8.2 15.036wxwxwxwx2wx--1019.2 997.7----wx
1999-08-01 16:00:00 23.2--- 7.9 14.638wxwxwxwx2wx--1019.1 997.5----wx
1999-08-01 17:00:00 22.4--- 9.6 15.044wxwxwx2wx--1019.1 997.5----wx
1999-08-01 18:00:00 20.2--- 9.7 14.251wxwxwx1wx--1019.3 997.5 0.0---wx
1999-08-01 19:00:00 17.4--- 9.6 13.060wxwxwx1wx--1019.7 997.7----wx
1999-08-01 20:00:00 15.6--- 9.9 12.469wxwxwx1wx--1020.2 998.0----wx
1999-08-01 21:00:00 16.8--- 8.0 12.056wxwxwx1wx--1020.4 998.3----wx
1999-08-01 22:00:00 16.2--- 7.2 11.455wxwxwx1wx--1020.5 998.4----wx
1999-08-01 23:00:00 15.8--- 7.2 11.257wxwxwx1wx--1020.7 998.5----wx

 

Źródłem pochodzenia danych jest Instytut Meteorologii i Gospodarki Wodnej – Państwowy Instytut Badawczy. Dane Instytutu Meteorologii i Gospodarki Wodnej – Państwowego Instytutu Badawczego zostały przetworzone.

Dane źródłowe można odnaleźć na stronie https://dane.imgw.pl